createdAt,value
2016-10-25T00:00:37.166Z,0
2016-10-25T00:01:37.151Z,0
2016-10-25T00:02:37.136Z,0
2016-10-25T00:03:37.123Z,0
2016-10-25T00:04:37.138Z,0
2016-10-25T00:05:37.100Z,0
2016-10-25T00:06:37.097Z,0
2016-10-25T00:07:37.096Z,0
2016-10-25T00:08:37.053Z,0
2016-10-25T00:09:37.066Z,0
2016-10-25T00:10:37.034Z,0
2016-10-25T00:11:37.035Z,0
2016-10-25T00:12:37.035Z,0
2016-10-25T00:13:37.161Z,0
2016-10-25T00:14:36.997Z,0
2016-10-25T00:15:36.971Z,0
2016-10-25T00:16:36.988Z,0
2016-10-25T00:17:37.002Z,0
2016-10-25T00:18:36.959Z,0
2016-10-25T00:19:36.945Z,0
2016-10-25T00:20:36.914Z,0
2016-10-25T00:21:36.908Z,0
2016-10-25T00:22:36.914Z,0
2016-10-25T00:23:36.905Z,0
2016-10-25T00:24:36.892Z,0
2016-10-25T00:25:36.893Z,0
2016-10-25T00:26:36.848Z,0
2016-10-25T00:27:36.831Z,0
2016-10-25T00:28:36.830Z,0
2016-10-25T00:29:36.834Z,0
2016-10-25T00:30:36.816Z,0
2016-10-25T00:31:36.822Z,0
2016-10-25T00:32:36.816Z,0
2016-10-25T00:33:36.786Z,0
2016-10-25T00:34:36.764Z,0
2016-10-25T00:35:36.745Z,0
2016-10-25T00:36:36.767Z,0
2016-10-25T00:37:36.728Z,0
2016-10-25T00:38:36.714Z,0
2016-10-25T00:39:36.738Z,0
2016-10-25T00:40:36.691Z,0
2016-10-25T00:41:36.702Z,0
2016-10-25T00:42:36.660Z,0
2016-10-25T00:43:36.670Z,0
2016-10-25T00:44:36.657Z,0
2016-10-25T00:45:36.639Z,0
2016-10-25T00:46:36.637Z,0
2016-10-25T00:47:36.617Z,0
2016-10-25T00:48:36.603Z,0
2016-10-25T00:49:36.595Z,0
2016-10-25T00:50:36.570Z,0
2016-10-25T00:51:36.573Z,0
2016-10-25T00:52:36.544Z,0
2016-10-25T00:53:36.554Z,0
2016-10-25T00:54:36.555Z,0
2016-10-25T00:55:36.523Z,0
2016-10-25T00:56:36.500Z,0
2016-10-25T00:57:36.516Z,0
2016-10-25T00:58:36.532Z,0
2016-10-25T00:59:36.502Z,0
2016-10-25T01:00:36.478Z,0
2016-10-25T01:01:36.461Z,0
2016-10-25T01:02:36.448Z,0
2016-10-25T01:03:36.416Z,0
2016-10-25T01:04:36.422Z,0
2016-10-25T01:05:36.442Z,0
2016-10-25T01:06:36.381Z,0
2016-10-25T01:07:36.381Z,0
2016-10-25T01:08:36.348Z,0
2016-10-25T01:09:36.381Z,0
2016-10-25T01:10:36.367Z,0
2016-10-25T01:11:36.371Z,0
2016-10-25T01:12:36.313Z,0
2016-10-25T01:13:36.320Z,0
2016-10-25T01:14:36.301Z,0
2016-10-25T01:15:36.283Z,0
2016-10-25T01:16:36.279Z,0
2016-10-25T01:17:36.283Z,0
2016-10-25T01:18:36.260Z,0
2016-10-25T01:19:36.455Z,0
2016-10-25T01:20:36.233Z,0
2016-10-25T01:21:36.194Z,0
2016-10-25T01:22:36.193Z,0
2016-10-25T01:23:36.191Z,0
2016-10-25T01:24:36.210Z,0
2016-10-25T01:25:36.161Z,0
2016-10-25T01:26:36.146Z,0
2016-10-25T01:27:36.131Z,0
2016-10-25T01:28:36.131Z,0
2016-10-25T01:29:36.132Z,0
2016-10-25T01:30:36.105Z,0
2016-10-25T01:31:36.421Z,0
2016-10-25T01:32:36.088Z,0
2016-10-25T01:33:36.093Z,0
2016-10-25T01:34:36.076Z,0
2016-10-25T01:35:36.065Z,0
2016-10-25T01:36:36.041Z,0
2016-10-25T01:37:36.051Z,0
2016-10-25T01:38:36.024Z,0
2016-10-25T01:39:36.001Z,0
2016-10-25T01:40:36.012Z,0
2016-10-25T01:41:35.996Z,0
2016-10-25T01:42:35.966Z,0
2016-10-25T01:43:35.965Z,0
2016-10-25T01:44:35.959Z,0
2016-10-25T01:45:35.944Z,0
2016-10-25T01:46:35.915Z,0
2016-10-25T01:47:35.898Z,0
2016-10-25T01:48:35.897Z,0
2016-10-25T01:49:35.880Z,0
2016-10-25T01:50:35.879Z,0
2016-10-25T01:51:35.872Z,0
2016-10-25T01:52:35.872Z,0
2016-10-25T01:53:35.858Z,0
2016-10-25T01:54:35.862Z,0
2016-10-25T01:55:35.844Z,0
2016-10-25T01:56:35.794Z,0
2016-10-25T01:57:35.782Z,0
2016-10-25T01:58:35.794Z,0
2016-10-25T01:59:35.802Z,0
2016-10-25T02:00:35.922Z,0
2016-10-25T02:01:35.759Z,0
2016-10-25T02:02:35.756Z,0
2016-10-25T02:03:35.733Z,0
2016-10-25T02:04:35.700Z,0
2016-10-25T02:05:35.715Z,0
2016-10-25T02:06:35.704Z,0
2016-10-25T02:07:35.692Z,0
2016-10-25T02:08:35.665Z,0
2016-10-25T02:09:35.646Z,0
2016-10-25T02:10:35.770Z,0
2016-10-25T02:11:35.621Z,0
2016-10-25T02:12:35.646Z,0
2016-10-25T02:13:35.621Z,0
2016-10-25T02:14:35.614Z,0
2016-10-25T02:15:35.606Z,0
2016-10-25T02:16:35.589Z,0
2016-10-25T02:17:35.594Z,0
2016-10-25T02:18:35.544Z,0
2016-10-25T02:19:35.532Z,0
2016-10-25T02:20:35.540Z,0
2016-10-25T02:21:35.539Z,0
2016-10-25T02:22:35.523Z,0
2016-10-25T02:23:35.525Z,0
2016-10-25T02:24:35.471Z,0
2016-10-25T02:25:35.479Z,0
2016-10-25T02:26:35.442Z,0
2016-10-25T02:27:35.471Z,0
2016-10-25T02:28:35.431Z,0
2016-10-25T02:29:35.425Z,0
2016-10-25T02:30:35.416Z,0
2016-10-25T02:31:35.404Z,0
2016-10-25T02:32:35.412Z,0
2016-10-25T02:33:35.381Z,0
2016-10-25T02:34:35.389Z,0
2016-10-25T02:35:35.372Z,0
2016-10-25T02:36:35.346Z,0
2016-10-25T02:37:35.346Z,0
2016-10-25T02:38:35.306Z,0
2016-10-25T02:39:35.336Z,0
2016-10-25T02:40:35.316Z,0
2016-10-25T02:41:35.297Z,0
2016-10-25T02:42:35.335Z,0
2016-10-25T02:43:35.284Z,0
2016-10-25T02:44:35.276Z,0
2016-10-25T02:45:35.251Z,0
2016-10-25T02:46:35.220Z,0
2016-10-25T02:47:35.231Z,0
2016-10-25T02:48:35.210Z,0
2016-10-25T02:49:35.205Z,0
2016-10-25T02:50:35.184Z,0
2016-10-25T02:51:35.191Z,0
2016-10-25T02:52:35.194Z,0
2016-10-25T02:53:35.141Z,0
2016-10-25T02:54:35.150Z,0
2016-10-25T02:55:35.149Z,0
2016-10-25T02:56:35.135Z,0
2016-10-25T02:57:35.101Z,0
2016-10-25T02:58:35.105Z,0
2016-10-25T02:59:35.100Z,0
2016-10-25T03:00:35.084Z,0
2016-10-25T03:01:35.072Z,0
2016-10-25T03:02:35.058Z,0
2016-10-25T03:03:35.021Z,0
2016-10-25T03:04:35.014Z,0
2016-10-25T03:05:35.027Z,0
2016-10-25T03:06:35.033Z,0
2016-10-25T03:07:35.032Z,0
2016-10-25T03:08:35.001Z,0
2016-10-25T03:09:34.984Z,0
2016-10-25T03:10:34.985Z,0
2016-10-25T03:11:35.110Z,0
2016-10-25T03:12:34.944Z,0
2016-10-25T03:13:34.938Z,0
2016-10-25T03:14:35.243Z,0
2016-10-25T03:15:34.904Z,0
2016-10-25T03:16:34.907Z,0
2016-10-25T03:17:34.876Z,0
2016-10-25T03:18:34.869Z,0
2016-10-25T03:19:34.858Z,0
2016-10-25T03:20:34.860Z,0
2016-10-25T03:21:34.859Z,0
2016-10-25T03:22:34.816Z,0
2016-10-25T03:23:34.803Z,0
2016-10-25T03:24:34.824Z,0
2016-10-25T03:25:34.787Z,0
2016-10-25T03:26:34.771Z,0
2016-10-25T03:27:34.784Z,0
2016-10-25T03:28:34.764Z,0
2016-10-25T03:29:34.753Z,0
2016-10-25T03:30:34.732Z,0
2016-10-25T03:31:34.735Z,0
2016-10-25T03:32:34.725Z,0
2016-10-25T03:33:34.705Z,0
2016-10-25T03:34:34.700Z,0
2016-10-25T03:35:34.694Z,0
2016-10-25T03:36:34.692Z,0
2016-10-25T03:37:34.686Z,0
2016-10-25T03:38:34.654Z,0
2016-10-25T03:39:34.641Z,0
2016-10-25T03:40:34.600Z,0
2016-10-25T03:41:34.607Z,0
2016-10-25T03:42:34.922Z,0
2016-10-25T03:43:34.602Z,0
2016-10-25T03:44:34.595Z,0
2016-10-25T03:45:34.598Z,0
2016-10-25T03:46:34.573Z,0
2016-10-25T03:47:34.545Z,0
2016-10-25T03:48:34.535Z,0
2016-10-25T03:49:34.542Z,0
2016-10-25T03:50:34.488Z,0
2016-10-25T03:51:34.482Z,0
2016-10-25T03:52:34.512Z,0
2016-10-25T03:53:34.473Z,0
2016-10-25T03:54:34.465Z,0
2016-10-25T03:55:34.459Z,0
2016-10-25T03:56:34.439Z,0
2016-10-25T03:57:34.402Z,0
2016-10-25T03:58:34.430Z,0
2016-10-25T03:59:34.390Z,0
2016-10-25T04:00:34.384Z,0
2016-10-25T04:01:34.371Z,0
2016-10-25T04:02:34.503Z,0
2016-10-25T04:03:34.351Z,0
2016-10-25T04:04:34.343Z,0
2016-10-25T04:05:34.316Z,0
2016-10-25T04:06:34.335Z,0
2016-10-25T04:07:34.294Z,0
2016-10-25T04:08:34.298Z,0
2016-10-25T04:09:34.291Z,0
2016-10-25T04:10:34.275Z,0
2016-10-25T04:11:34.236Z,0
2016-10-25T04:12:34.261Z,0
2016-10-25T04:13:34.257Z,0
2016-10-25T04:14:34.224Z,0
2016-10-25T04:15:34.218Z,0
2016-10-25T04:16:34.253Z,0
2016-10-25T04:17:34.184Z,0
2016-10-25T04:18:34.146Z,0
2016-10-25T04:19:34.186Z,0
2016-10-25T04:20:34.175Z,0
2016-10-25T04:21:34.149Z,0
2016-10-25T04:22:34.106Z,0
2016-10-25T04:23:34.116Z,0
2016-10-25T04:24:34.115Z,0
2016-10-25T04:25:34.096Z,0
2016-10-25T04:26:34.061Z,0
2016-10-25T04:27:34.071Z,0
2016-10-25T04:28:34.054Z,0
2016-10-25T04:29:34.051Z,0
2016-10-25T04:30:34.056Z,0
2016-10-25T04:31:34.034Z,0
2016-10-25T04:32:34.010Z,0
2016-10-25T04:33:34.304Z,0
2016-10-25T04:34:33.992Z,0
2016-10-25T04:35:33.984Z,0
2016-10-25T04:36:33.979Z,0
2016-10-25T04:37:33.949Z,0
2016-10-25T04:38:33.908Z,0
2016-10-25T04:39:33.908Z,0
2016-10-25T04:40:33.898Z,0
2016-10-25T04:41:33.903Z,0
2016-10-25T04:42:33.892Z,0
2016-10-25T04:43:33.879Z,0
2016-10-25T04:44:33.847Z,0
2016-10-25T04:45:33.861Z,0
2016-10-25T04:46:33.838Z,0
2016-10-25T04:47:33.818Z,0
2016-10-25T04:48:33.807Z,0
2016-10-25T04:49:33.799Z,0
2016-10-25T04:50:33.771Z,0
2016-10-25T04:51:33.776Z,0
2016-10-25T04:52:33.785Z,0
2016-10-25T04:53:33.775Z,0
2016-10-25T04:54:33.744Z,0
2016-10-25T04:55:33.732Z,0
2016-10-25T04:56:33.719Z,0
2016-10-25T04:57:33.713Z,0
2016-10-25T04:58:33.688Z,0
2016-10-25T04:59:33.690Z,0
2016-10-25T05:00:33.697Z,0
2016-10-25T05:01:33.663Z,0
2016-10-25T05:02:33.659Z,0
2016-10-25T05:03:34.117Z,0
2016-10-25T05:04:33.607Z,0
2016-10-25T05:05:33.627Z,0
2016-10-25T05:06:33.639Z,0
2016-10-25T05:07:33.604Z,0
2016-10-25T05:08:33.595Z,0
2016-10-25T05:09:33.570Z,0
2016-10-25T05:10:33.548Z,0
2016-10-25T05:11:33.549Z,0
2016-10-25T05:12:33.557Z,0
2016-10-25T05:13:33.509Z,0
2016-10-25T05:14:33.527Z,0
2016-10-25T05:15:33.512Z,0
2016-10-25T05:16:33.486Z,0
2016-10-25T05:17:33.482Z,0
2016-10-25T05:18:33.480Z,0
2016-10-25T05:19:33.470Z,0
2016-10-25T05:20:33.444Z,0
2016-10-25T05:21:33.444Z,4
2016-10-25T05:22:33.458Z,4
2016-10-25T05:23:33.388Z,4
2016-10-25T05:24:33.381Z,4
2016-10-25T05:25:33.417Z,8
2016-10-25T05:26:33.377Z,8
2016-10-25T05:27:33.356Z,8
2016-10-25T05:28:33.351Z,12
2016-10-25T05:29:33.351Z,12
2016-10-25T05:30:33.329Z,16
2016-10-25T05:31:33.333Z,16
2016-10-25T05:32:33.312Z,20
2016-10-25T05:33:33.289Z,24
2016-10-25T05:34:33.265Z,28
2016-10-25T05:35:33.248Z,32
2016-10-25T05:36:33.265Z,40
2016-10-25T05:37:33.238Z,40
2016-10-25T05:38:33.240Z,40
2016-10-25T05:39:33.235Z,48
2016-10-25T05:40:33.205Z,52
2016-10-25T05:41:33.206Z,60
2016-10-25T05:42:33.191Z,60
2016-10-25T05:43:33.164Z,64
2016-10-25T05:44:33.137Z,68
2016-10-25T05:45:33.142Z,84
2016-10-25T05:46:33.137Z,76
2016-10-25T05:47:33.149Z,80
2016-10-25T05:48:33.133Z,60
2016-10-25T05:49:33.105Z,60
2016-10-25T05:50:33.071Z,80
2016-10-25T05:51:33.068Z,64
2016-10-25T05:52:33.078Z,68
2016-10-25T05:53:33.081Z,56
2016-10-25T05:54:33.023Z,72
2016-10-25T05:55:33.008Z,80
2016-10-25T05:56:33.001Z,80
2016-10-25T05:57:32.989Z,92
2016-10-25T05:58:32.999Z,100
2016-10-25T05:59:32.974Z,116
2016-10-25T06:00:32.944Z,140
2016-10-25T06:01:33.559Z,164
2016-10-25T06:02:32.924Z,184
2016-10-25T06:03:32.943Z,228
2016-10-25T06:04:32.908Z,288
2016-10-25T06:05:32.894Z,304
2016-10-25T06:06:32.872Z,312
2016-10-25T06:07:32.855Z,356
2016-10-25T06:08:32.846Z,452
2016-10-25T06:09:32.833Z,644
2016-10-25T06:10:32.825Z,916
2016-10-25T06:11:32.825Z,1252
2016-10-25T06:12:32.810Z,1468
2016-10-25T06:13:32.807Z,1556
2016-10-25T06:14:32.770Z,1656
2016-10-25T06:15:32.761Z,1768
2016-10-25T06:16:32.725Z,1956
2016-10-25T06:17:32.734Z,2124
2016-10-25T06:18:32.781Z,2012
2016-10-25T06:19:32.753Z,1748
2016-10-25T06:20:32.741Z,1508
2016-10-25T06:21:32.702Z,1348
2016-10-25T06:22:32.650Z,1400
2016-10-25T06:23:32.672Z,1716
2016-10-25T06:24:32.631Z,2124
2016-10-25T06:25:32.619Z,2208
2016-10-25T06:26:32.624Z,2136
2016-10-25T06:27:32.627Z,2076
2016-10-25T06:28:32.591Z,2072
2016-10-25T06:29:32.593Z,2248
2016-10-25T06:30:32.599Z,2492
2016-10-25T06:31:32.573Z,2784
2016-10-25T06:32:32.562Z,2972
2016-10-25T06:33:32.531Z,3184
2016-10-25T06:34:32.525Z,3524
2016-10-25T06:35:32.491Z,3112
2016-10-25T06:36:32.501Z,3380
2016-10-25T06:37:32.494Z,3772
2016-10-25T06:38:32.476Z,3568
2016-10-25T06:39:32.450Z,2540
2016-10-25T06:40:32.486Z,2236
2016-10-25T06:41:32.422Z,2200
2016-10-25T06:42:32.444Z,1784
2016-10-25T06:43:32.489Z,1456
2016-10-25T06:44:32.403Z,1424
2016-10-25T06:45:32.394Z,1468
2016-10-25T06:46:32.384Z,1416
2016-10-25T06:47:32.373Z,1456
2016-10-25T06:48:32.335Z,1656
2016-10-25T06:49:32.346Z,1884
2016-10-25T06:50:32.338Z,1932
2016-10-25T06:51:32.303Z,2108
2016-10-25T06:52:32.288Z,2348
2016-10-25T06:53:32.312Z,2704
2016-10-25T06:54:32.316Z,3120
2016-10-25T06:55:32.261Z,3776
2016-10-25T06:56:32.253Z,4200
2016-10-25T06:57:32.231Z,4348
2016-10-25T06:58:32.213Z,4512
2016-10-25T06:59:32.199Z,4156
2016-10-25T07:00:32.193Z,3864
2016-10-25T07:01:32.183Z,3884
2016-10-25T07:02:32.205Z,3596
2016-10-25T07:03:32.167Z,3308
2016-10-25T07:04:32.173Z,2948
2016-10-25T07:05:32.141Z,2652
2016-10-25T07:06:32.136Z,2808
2016-10-25T07:07:32.129Z,2704
2016-10-25T07:08:32.091Z,3152
2016-10-25T07:09:32.075Z,3996
2016-10-25T07:10:32.058Z,3988
2016-10-25T07:11:32.043Z,4180
2016-10-25T07:12:32.071Z,4468
2016-10-25T07:13:32.026Z,4876
2016-10-25T07:14:32.037Z,4920
2016-10-25T07:15:31.998Z,5452
2016-10-25T07:16:31.980Z,5840
2016-10-25T07:17:31.956Z,6328
2016-10-25T07:18:31.940Z,7296
2016-10-25T07:19:31.955Z,8528
2016-10-25T07:20:31.930Z,8640
2016-10-25T07:21:31.918Z,8252
2016-10-25T07:22:31.944Z,8012
2016-10-25T07:23:31.906Z,7588
2016-10-25T07:24:31.882Z,7716
2016-10-25T07:25:31.862Z,7772
2016-10-25T07:26:31.851Z,7480
2016-10-25T07:27:31.834Z,8080
2016-10-25T07:28:31.841Z,8128
2016-10-25T07:29:31.822Z,6940
2016-10-25T07:30:31.825Z,6408
2016-10-25T07:31:31.809Z,5844
2016-10-25T07:32:31.768Z,5544
2016-10-25T07:33:31.795Z,5524
2016-10-25T07:34:31.738Z,5600
2016-10-25T07:35:31.755Z,6220
2016-10-25T07:36:31.732Z,6644
2016-10-25T07:37:31.732Z,6796
2016-10-25T07:38:31.704Z,6816
2016-10-25T07:39:31.701Z,7052
2016-10-25T07:40:31.664Z,6676
2016-10-25T07:41:31.678Z,6376
2016-10-25T07:42:31.651Z,6172
2016-10-25T07:43:31.650Z,5828
2016-10-25T07:44:31.633Z,6572
2016-10-25T07:45:31.612Z,7340
2016-10-25T07:46:31.617Z,7416
2016-10-25T07:47:31.596Z,7756
2016-10-25T07:48:31.566Z,8140
2016-10-25T07:49:31.562Z,8172
2016-10-25T07:50:31.551Z,7872
2016-10-25T07:51:31.540Z,8604
2016-10-25T07:52:31.530Z,7804
2016-10-25T07:53:31.494Z,6916
2016-10-25T07:54:31.503Z,6884
2016-10-25T07:55:31.494Z,6536
2016-10-25T07:56:31.484Z,6428
2016-10-25T07:57:31.440Z,6560
2016-10-25T07:58:31.439Z,6060
2016-10-25T07:59:31.474Z,6256
2016-10-25T08:00:31.440Z,7640
2016-10-25T08:01:31.396Z,8752
2016-10-25T08:02:31.383Z,7868
2016-10-25T08:03:31.396Z,7088
2016-10-25T08:04:31.368Z,7976
2016-10-25T08:05:31.385Z,8332
2016-10-25T08:06:31.348Z,7832
2016-10-25T08:07:31.325Z,8272
2016-10-25T08:08:31.335Z,8360
2016-10-25T08:09:31.317Z,9096
2016-10-25T08:10:31.271Z,12136
2016-10-25T08:11:31.287Z,14780
2016-10-25T08:12:31.267Z,16152
2016-10-25T08:13:31.284Z,15892
2016-10-25T08:14:31.255Z,16172
2016-10-25T08:15:31.222Z,19168
2016-10-25T08:16:31.203Z,19808
2016-10-25T08:17:31.197Z,19424
2016-10-25T08:18:31.215Z,16688
2016-10-25T08:19:31.193Z,15224
2016-10-25T08:20:31.161Z,16448
2016-10-25T08:21:31.146Z,20832
2016-10-25T08:22:31.159Z,22272
2016-10-25T08:23:31.105Z,24480
2016-10-25T08:24:31.115Z,24832
2016-10-25T08:25:31.105Z,24288
2016-10-25T08:26:31.106Z,25152
2016-10-25T08:27:31.281Z,23104
2016-10-25T08:28:31.068Z,19904
2016-10-25T08:29:31.052Z,24288
2016-10-25T08:30:31.046Z,24704
2016-10-25T08:31:31.054Z,19616
2016-10-25T08:32:31.026Z,22432
2016-10-25T08:33:31.028Z,23552
2016-10-25T08:34:30.996Z,22848
2016-10-25T08:35:31.029Z,25536
2016-10-25T08:36:30.978Z,21120
2016-10-25T08:37:30.997Z,23328
2016-10-25T08:38:30.972Z,28736
2016-10-25T08:39:30.929Z,25984
2016-10-25T08:40:30.925Z,23296
2016-10-25T08:41:30.955Z,21984
2016-10-25T08:42:30.952Z,25248
2016-10-25T08:43:30.973Z,25088
2016-10-25T08:44:30.885Z,25312
2016-10-25T08:45:30.874Z,24288
2016-10-25T08:46:30.851Z,24096
2016-10-25T08:47:30.825Z,27872
2016-10-25T08:48:30.820Z,34208
2016-10-25T08:49:30.820Z,36672
2016-10-25T08:50:30.826Z,38016
2016-10-25T08:51:30.804Z,35456
2016-10-25T08:52:30.770Z,37312
2016-10-25T08:53:30.792Z,33344
2016-10-25T08:54:30.769Z,34048
2016-10-25T08:55:30.732Z,37760
2016-10-25T08:56:30.740Z,34784
2016-10-25T08:57:30.719Z,39488
2016-10-25T08:58:30.716Z,43744
2016-10-25T08:59:30.699Z,34624
2016-10-25T09:00:30.999Z,34080
2016-10-25T09:01:30.673Z,36480
2016-10-25T09:02:30.676Z,36384
2016-10-25T09:03:30.625Z,37376
2016-10-25T09:04:30.640Z,35616
2016-10-25T09:05:30.610Z,35040
2016-10-25T09:06:30.617Z,31904
2016-10-25T09:07:30.618Z,33856
2016-10-25T09:08:30.601Z,29344
2016-10-25T09:09:30.615Z,30464
2016-10-25T09:10:30.567Z,29888
2016-10-25T09:11:30.840Z,28608
2016-10-25T09:12:30.759Z,28512
2016-10-25T09:13:30.531Z,28480
2016-10-25T09:14:30.722Z,28128
2016-10-25T09:15:30.718Z,26080
2016-10-25T09:16:30.492Z,24320
2016-10-25T09:17:30.515Z,24096
2016-10-25T09:18:30.488Z,22816
2016-10-25T09:19:30.471Z,20352
2016-10-25T09:20:30.452Z,19584
2016-10-25T09:21:30.455Z,19040
2016-10-25T09:22:30.447Z,18016
2016-10-25T09:23:30.431Z,18016
2016-10-25T09:24:30.423Z,17004
2016-10-25T09:25:30.408Z,16888
2016-10-25T09:26:30.400Z,17728
2016-10-25T09:27:30.395Z,17984
2016-10-25T09:28:30.340Z,16652
2016-10-25T09:29:30.349Z,15976
2016-10-25T09:30:30.374Z,14884
2016-10-25T09:31:30.346Z,15564
2016-10-25T09:32:30.324Z,14992
2016-10-25T09:33:30.319Z,13636
2016-10-25T09:34:30.302Z,13704
2016-10-25T09:35:30.288Z,14780
2016-10-25T09:36:30.278Z,15140
2016-10-25T09:37:30.236Z,14424
2016-10-25T09:38:30.220Z,18720
2016-10-25T09:39:30.235Z,21376
2016-10-25T09:40:30.218Z,18464
2016-10-25T09:41:30.221Z,17408
2016-10-25T09:42:30.194Z,19552
2016-10-25T09:43:30.397Z,16088
2016-10-25T09:44:30.180Z,15624
2016-10-25T09:45:30.153Z,14440
2016-10-25T09:46:30.153Z,14716
2016-10-25T09:47:30.149Z,18816
2016-10-25T09:48:30.121Z,18272
2016-10-25T09:49:30.114Z,16792
2016-10-25T09:50:30.107Z,16644
2016-10-25T09:51:30.104Z,15120
2016-10-25T09:52:30.088Z,13732
2016-10-25T09:53:30.073Z,13524
2016-10-25T09:54:30.128Z,15156
2016-10-25T09:55:30.077Z,14944
2016-10-25T09:56:30.015Z,14204
2016-10-25T09:57:30.009Z,13548
2016-10-25T09:58:30.004Z,15412
2016-10-25T09:59:30.001Z,13836
2016-10-25T10:00:29.957Z,12408
2016-10-25T10:01:30.026Z,13280
2016-10-25T10:02:29.940Z,12256
2016-10-25T10:03:29.939Z,14988
2016-10-25T10:04:29.967Z,14580
2016-10-25T10:05:29.943Z,13424
2016-10-25T10:06:29.901Z,13112
2016-10-25T10:07:29.929Z,14564
2016-10-25T10:08:29.905Z,15824
2016-10-25T10:09:29.869Z,15048
2016-10-25T10:10:29.851Z,15940
2016-10-25T10:11:29.847Z,14016
2016-10-25T10:12:29.853Z,12532
2016-10-25T10:13:29.794Z,12524
2016-10-25T10:14:29.804Z,14012
2016-10-25T10:15:44.689Z,16180
2016-10-25T10:16:29.802Z,15420
2016-10-25T10:17:29.978Z,13916
2016-10-25T10:18:29.768Z,12908
2016-10-25T10:19:30.072Z,13844
2016-10-25T10:20:29.720Z,15084
2016-10-25T10:21:29.717Z,14424
2016-10-25T10:22:29.734Z,14916
2016-10-25T10:23:29.699Z,15716
2016-10-25T10:24:29.691Z,16452
2016-10-25T10:25:29.867Z,15880
2016-10-25T10:26:29.676Z,16616
2016-10-25T10:27:29.680Z,17060
2016-10-25T10:28:29.628Z,18016
2016-10-25T10:29:29.636Z,19840
2016-10-25T10:30:29.617Z,18432
2016-10-25T10:31:29.603Z,17344
2016-10-25T10:32:29.592Z,16108
2016-10-25T10:33:29.597Z,16248
2016-10-25T10:34:29.899Z,16768
2016-10-25T10:35:29.595Z,16332
2016-10-25T10:36:29.546Z,16772
2016-10-25T10:37:29.565Z,16732
2016-10-25T10:38:29.509Z,17568
2016-10-25T10:39:29.530Z,18720
2016-10-25T10:40:29.515Z,19040
2016-10-25T10:41:29.501Z,19072
2016-10-25T10:42:29.489Z,18784
2016-10-25T10:43:29.475Z,18272
2016-10-25T10:44:29.445Z,17888
2016-10-25T10:45:29.464Z,18304
2016-10-25T10:46:29.420Z,18784
2016-10-25T10:47:29.426Z,19232
2016-10-25T10:48:29.602Z,19456
2016-10-25T10:49:29.604Z,19296
2016-10-25T10:51:29.377Z,20992
2016-10-25T10:52:29.368Z,20960
2016-10-25T10:53:29.644Z,21728
2016-10-25T10:54:29.322Z,22688
2016-10-25T10:55:29.332Z,22112
2016-10-25T10:56:29.311Z,21312
2016-10-25T10:57:29.301Z,21376
2016-10-25T10:58:29.283Z,21344
2016-10-25T10:59:29.283Z,21280
2016-10-25T11:00:29.264Z,21216
2016-10-25T11:01:29.283Z,21120
2016-10-25T11:02:29.231Z,21440
2016-10-25T11:03:29.216Z,21280
2016-10-25T11:04:29.213Z,21120
2016-10-25T11:05:29.191Z,21632
2016-10-25T11:06:29.207Z,21728
2016-10-25T11:07:29.199Z,20256
2016-10-25T11:08:29.190Z,20096
2016-10-25T11:09:29.198Z,19232
2016-10-25T11:10:29.148Z,18976
2016-10-25T11:11:29.165Z,17792
2016-10-25T11:12:29.133Z,16692
2016-10-25T11:13:29.121Z,16136
2016-10-25T11:14:29.118Z,15144
2016-10-25T11:15:29.056Z,14572
2016-10-25T11:16:29.098Z,14424
2016-10-25T11:17:29.092Z,13932
2016-10-25T11:18:29.040Z,13480
2016-10-25T11:19:29.241Z,14100
2016-10-25T11:20:29.263Z,14960
2016-10-25T11:21:29.027Z,14936
2016-10-25T11:22:28.996Z,14324
2016-10-25T11:23:28.983Z,14712
2016-10-25T11:24:29.002Z,16120
2016-10-25T11:25:28.989Z,15988
2016-10-25T11:26:28.963Z,14140
2016-10-25T11:27:28.926Z,12252
2016-10-25T11:28:28.943Z,11164
2016-10-25T11:29:28.924Z,11076
2016-10-25T11:30:28.918Z,10640
2016-10-25T11:31:28.921Z,10644
2016-10-25T11:32:28.879Z,10388
2016-10-25T11:33:29.217Z,10464
2016-10-25T11:34:28.869Z,10528
2016-10-25T11:35:28.833Z,9944
2016-10-25T11:36:28.837Z,9924
2016-10-25T11:37:28.799Z,10168
2016-10-25T11:38:28.833Z,10428
2016-10-25T11:39:28.827Z,10624
2016-10-25T11:40:28.784Z,11184
2016-10-25T11:41:28.775Z,11636
2016-10-25T11:42:28.756Z,11680
2016-10-25T11:43:28.749Z,11140
2016-10-25T11:44:28.724Z,10472
2016-10-25T11:45:28.731Z,9900
2016-10-25T11:46:28.720Z,9836
2016-10-25T11:47:28.699Z,10136
2016-10-25T11:48:28.687Z,10540
2016-10-25T11:49:28.887Z,10208
2016-10-25T11:50:28.671Z,10392
2016-10-25T11:51:28.854Z,9768
2016-10-25T11:52:28.634Z,8932
2016-10-25T11:53:28.626Z,8288
2016-10-25T11:54:28.621Z,7564
2016-10-25T11:55:28.625Z,8168
2016-10-25T11:56:28.612Z,7764
2016-10-25T11:57:28.590Z,7912
2016-10-25T11:58:28.574Z,8596
2016-10-25T11:59:28.548Z,9700
2016-10-25T12:00:28.567Z,9804
2016-10-25T12:01:28.561Z,9524
2016-10-25T12:02:28.528Z,8536
2016-10-25T12:03:28.489Z,9448
2016-10-25T12:04:28.485Z,9268
2016-10-25T12:05:28.471Z,8492
2016-10-25T12:06:28.481Z,8412
2016-10-25T12:07:28.458Z,7612
2016-10-25T12:08:28.455Z,6884
2016-10-25T12:09:28.416Z,7428
2016-10-25T12:10:28.426Z,7040
2016-10-25T12:11:28.399Z,5136
2016-10-25T12:12:28.384Z,4948
2016-10-25T12:13:28.355Z,5052
2016-10-25T12:14:28.382Z,4908
2016-10-25T12:15:28.383Z,4112
2016-10-25T12:16:28.342Z,4664
2016-10-25T12:17:28.309Z,4492
2016-10-25T12:18:28.333Z,4296
2016-10-25T12:19:28.283Z,4492
2016-10-25T12:20:28.307Z,4804
2016-10-25T12:21:28.294Z,4860
2016-10-25T12:22:28.281Z,5612
2016-10-25T12:23:28.271Z,6292
2016-10-25T12:24:28.260Z,6992
2016-10-25T12:25:28.523Z,6196
2016-10-25T12:26:28.231Z,6736
2016-10-25T12:27:28.210Z,7168
2016-10-25T12:28:28.201Z,6532
2016-10-25T12:29:28.177Z,7056
2016-10-25T12:30:28.176Z,6448
2016-10-25T12:31:28.177Z,6980
2016-10-25T12:32:28.195Z,6124
2016-10-25T12:33:28.110Z,5116
2016-10-25T12:34:28.121Z,4848
2016-10-25T12:35:28.093Z,5864
2016-10-25T12:36:28.130Z,6832
2016-10-25T12:37:28.089Z,7320
2016-10-25T12:38:28.054Z,7956
2016-10-25T12:39:28.040Z,8000
2016-10-25T12:40:28.057Z,7012
2016-10-25T12:41:28.059Z,6884
2016-10-25T12:42:28.022Z,6596
2016-10-25T12:43:28.211Z,5784
2016-10-25T12:44:28.001Z,5520
2016-10-25T12:45:28.002Z,5660
2016-10-25T12:46:27.976Z,5888
2016-10-25T12:47:27.956Z,6716
2016-10-25T12:48:28.086Z,7800
2016-10-25T12:49:27.935Z,7900
2016-10-25T12:50:27.908Z,7872
2016-10-25T12:51:27.897Z,8104
2016-10-25T12:52:27.877Z,8016
2016-10-25T12:53:27.885Z,8276
2016-10-25T12:54:27.848Z,7340
2016-10-25T12:55:27.849Z,6808
2016-10-25T12:56:27.848Z,7104
2016-10-25T12:57:27.817Z,6684
2016-10-25T12:58:27.814Z,6324
2016-10-25T12:59:27.797Z,6376
2016-10-25T13:00:27.796Z,6804
2016-10-25T13:01:27.810Z,7552
2016-10-25T13:02:27.788Z,8828
2016-10-25T13:03:27.773Z,9628
2016-10-25T13:04:27.740Z,9628
2016-10-25T13:05:27.725Z,10100
2016-10-25T13:06:27.703Z,10760
2016-10-25T13:07:27.687Z,10264
2016-10-25T13:08:27.691Z,9512
2016-10-25T13:09:27.672Z,8516
2016-10-25T13:10:27.679Z,8648
2016-10-25T13:11:27.641Z,9336
2016-10-25T13:12:27.634Z,8844
2016-10-25T13:13:27.631Z,8744
2016-10-25T13:14:27.594Z,9064
2016-10-25T13:15:27.598Z,8488
2016-10-25T13:16:27.880Z,7540
2016-10-25T13:17:27.559Z,8268
2016-10-25T13:18:27.573Z,9408
2016-10-25T13:19:27.543Z,9828
2016-10-25T13:20:27.542Z,9492
2016-10-25T13:21:27.542Z,9608
2016-10-25T13:22:27.482Z,9596
2016-10-25T13:23:27.488Z,9988
2016-10-25T13:24:27.495Z,8948
2016-10-25T13:25:27.464Z,8104
2016-10-25T13:26:27.479Z,7964
2016-10-25T13:27:27.446Z,7352
2016-10-25T13:28:27.453Z,8544
2016-10-25T13:29:27.458Z,7780
2016-10-25T13:30:27.382Z,7396
2016-10-25T13:31:27.374Z,8616
2016-10-25T13:32:27.351Z,7852
2016-10-25T13:33:27.352Z,6668
2016-10-25T13:34:27.395Z,6988
2016-10-25T13:35:27.312Z,7248
2016-10-25T13:36:27.315Z,7208
2016-10-25T13:37:27.309Z,8480
2016-10-25T13:38:27.311Z,8092
2016-10-25T13:39:27.292Z,7584
2016-10-25T13:40:27.263Z,7084
2016-10-25T13:41:27.222Z,6684
2016-10-25T13:42:27.261Z,5604
2016-10-25T13:43:27.225Z,5436
2016-10-25T13:44:27.237Z,5652
2016-10-25T13:45:27.192Z,5292
2016-10-25T13:46:27.195Z,4872
2016-10-25T13:47:27.175Z,4248